Mitchellville, South Carolina
Current Conditions -  °F | °C
As of 1:56 PM on Tuesday 21 Oct 2014 (Local Time) from KNBC Reporting Station
Clear Clear  
Wind Chill: 78°   Ceiling: Unl
Heat Index: 79°   Visibility: 10mi
Dew Point: 54°   Wind: 12mph
Humidity: 43%   Direction: 260°W
Pressure: 29.92"   Gusts: NA
Location:  32.4773°N, 80.9264°W
Report Text: KNBC 211756Z 26010KT 10SM CLR 26/12 A2992 RMK AO2 SLP131 6//// T02560122 10256 20161 58022 $
Loading
Personal Weather Stations






























Interactive Weather Map
Tropical Storm Tracking
New forecast layout! Learn more

10-Day Weather Forecast

Advertisements
Track Severe Weather on mobile